Time;durP1;ratioP1;P1;durP2;ratioP2;P2;SDS_P1;SDS_P2;PMS_P1;PMS_P2;Temp;Humidity;BMP_temperature;BMP_pressure;BME280_temperature;BME280_humidity;BME280_pressure;Samples;Min_cycle;Max_cycle;Signal;HPM_P1;HPM_P2
2020/12/17 00:01:07;;;;;;;21.00;18.03;;;8.40;99.90;;;;;;5056410;28;20227;-40
2020/12/17 00:03:34;;;;;;;24.40;20.33;;;8.40;99.90;;;;;;5054993;28;20283;-40
2020/12/17 00:06:00;;;;;;;23.07;18.70;;;8.50;99.90;;;;;;5067113;28;20202;-40
2020/12/17 00:08:29;;;;;;;24.07;19.30;;;8.50;99.90;;;;;;5061679;28;20202;-40
2020/12/17 00:10:55;;;;;;;26.20;19.23;;;8.40;99.90;;;;;;5057616;28;20254;-40
2020/12/17 00:13:22;;;;;;;23.23;20.30;;;8.40;99.90;;;;;;5053994;28;20588;-40
2020/12/17 00:15:48;;;;;;;24.37;19.83;;;8.20;99.90;;;;;;5068935;28;20222;-40
2020/12/17 00:18:16;;;;;;;22.80;20.40;;;8.20;99.90;;;;;;5055561;28;20223;-40
2020/12/17 00:20:42;;;;;;;24.50;19.80;;;8.20;99.90;;;;;;5052811;28;20556;-41
2020/12/17 00:23:09;;;;;;;25.27;20.47;;;8.10;99.90;;;;;;5066614;28;20289;-40
2020/12/17 00:25:35;;;;;;;23.60;19.17;;;8.10;99.90;;;;;;5071216;28;20240;-40
2020/12/17 00:28:02;;;;;;;25.60;19.83;;;8.00;99.90;;;;;;5061108;28;20219;-40
2020/12/17 00:30:29;;;;;;;23.57;21.07;;;8.10;99.90;;;;;;5052562;28;20211;-40
2020/12/17 00:32:55;;;;;;;20.37;17.47;;;7.90;99.90;;;;;;5055006;28;20209;-40
2020/12/17 00:35:23;;;;;;;25.23;21.07;;;8.00;99.90;;;;;;5063763;28;20310;-40
2020/12/17 00:37:50;;;;;;;23.37;19.23;;;8.00;99.90;;;;;;5057362;28;20684;-41
2020/12/17 00:40:20;;;;;;;28.50;20.80;;;8.00;99.90;;;;;;5051707;28;20208;-41
2020/12/17 00:42:47;;;;;;;26.40;19.70;;;8.10;99.90;;;;;;5071328;28;20243;-41
2020/12/17 00:45:15;;;;;;;24.53;19.60;;;8.10;99.90;;;;;;5071957;28;20191;-41
2020/12/17 00:47:52;;;;;;;26.17;21.03;;;8.10;99.90;;;;;;5060098;28;20196;-42
2020/12/17 00:50:19;;;;;;;23.90;19.47;;;8.20;99.90;;;;;;5052381;28;20668;-43
2020/12/17 00:52:46;;;;;;;25.80;20.37;;;8.20;99.90;;;;;;5052001;28;20689;-41
2020/12/17 00:55:13;;;;;;;27.57;19.30;;;8.20;99.90;;;;;;5067896;28;20207;-41
2020/12/17 00:57:40;;;;;;;23.33;18.80;;;8.20;99.90;;;;;;5070119;28;20558;-41
2020/12/17 01:00:08;;;;;;;24.83;20.27;;;8.20;99.90;;;;;;5072048;28;20298;-42
2020/12/17 01:02:35;;;;;;;24.60;21.07;;;8.30;99.90;;;;;;5069865;28;20234;-42
2020/12/17 01:05:02;;;;;;;27.23;21.63;;;8.30;99.90;;;;;;5072498;28;20195;-41
2020/12/17 01:07:29;;;;;;;24.80;19.90;;;8.30;99.90;;;;;;5059019;28;20261;-41
2020/12/17 01:09:56;;;;;;;22.90;18.97;;;8.40;99.90;;;;;;5051947;28;20199;-41
2020/12/17 01:12:23;;;;;;;24.93;18.20;;;8.30;99.90;;;;;;5070334;28;20211;-41
2020/12/17 01:14:50;;;;;;;26.40;19.92;;;8.30;99.90;;;;;;5070324;28;20196;-41
2020/12/17 01:17:16;;;;;;;22.33;19.35;;;8.30;99.90;;;;;;5068822;28;20203;-42
2020/12/17 01:19:43;;;;;;;27.67;21.80;;;8.30;99.90;;;;;;5051341;28;20689;-42
2020/12/17 01:22:10;;;;;;;26.37;20.27;;;8.30;99.90;;;;;;5049978;28;20320;-41
2020/12/17 01:24:36;;;;;;;27.23;20.50;;;8.30;99.90;;;;;;5061421;28;20198;-41
2020/12/17 01:27:04;;;;;;;23.33;19.33;;;8.40;99.90;;;;;;5070046;28;20236;-41
2020/12/17 01:29:30;;;;;;;24.25;19.08;;;8.40;99.90;;;;;;5056666;28;20791;-41
2020/12/17 01:31:58;;;;;;;28.17;21.83;;;8.50;99.90;;;;;;5051776;28;20309;-41
2020/12/17 01:34:25;;;;;;;25.67;19.80;;;8.50;99.90;;;;;;5069878;28;20211;-42
2020/12/17 01:36:52;;;;;;;23.27;18.37;;;8.60;99.90;;;;;;5064502;28;20306;-41
2020/12/17 01:39:18;;;;;;;21.67;19.13;;;8.60;99.90;;;;;;5056179;28;20198;-41
2020/12/17 01:41:47;;;;;;;22.33;18.90;;;8.60;99.90;;;;;;5051733;28;20300;-41
2020/12/17 01:44:15;;;;;;;22.60;18.00;;;8.60;99.90;;;;;;5061138;28;20199;-41
2020/12/17 01:46:42;;;;;;;23.17;19.03;;;8.60;99.90;;;;;;5058676;28;20566;-41
2020/12/17 01:49:09;;;;;;;23.23;19.43;;;8.60;99.90;;;;;;5062741;28;20199;-41
2020/12/17 01:51:36;;;;;;;23.83;19.70;;;8.60;99.90;;;;;;5061013;28;20218;-41
2020/12/17 01:54:03;;;;;;;25.10;18.57;;;8.60;99.90;;;;;;5062909;28;20195;-41
2020/12/17 01:56:29;;;;;;;23.33;19.10;;;8.50;99.90;;;;;;5057972;28;20211;-42
2020/12/17 01:59:05;;;;;;;22.20;18.47;;;8.50;99.90;;;;;;5057691;28;20195;-42
2020/12/17 02:01:32;;;;;;;25.93;20.37;;;8.40;99.90;;;;;;5061549;28;20792;-42
2020/12/17 02:04:01;;;;;;;24.47;20.13;;;8.50;99.90;;;;;;5057646;28;20203;-42
2020/12/17 02:06:27;;;;;;;25.47;19.60;;;8.50;99.90;;;;;;5057728;28;20291;-40
2020/12/17 02:08:54;;;;;;;25.60;20.93;;;8.40;99.90;;;;;;5056527;28;20207;-40
2020/12/17 02:11:21;;;;;;;26.23;20.70;;;8.40;99.90;;;;;;5058390;28;20259;-40
2020/12/17 02:13:48;;;;;;;27.27;20.80;;;8.40;99.90;;;;;;5062082;28;20195;-40
2020/12/17 02:16:15;;;;;;;23.97;19.57;;;8.40;99.90;;;;;;5060017;28;20301;-40
2020/12/17 02:18:43;;;;;;;25.58;20.00;;;8.30;99.90;;;;;;5057444;28;20222;-40
2020/12/17 02:21:12;;;;;;;26.60;19.77;;;8.30;99.90;;;;;;5059280;28;20245;-40
2020/12/17 02:23:39;;;;;;;24.90;19.90;;;8.20;99.90;;;;;;5058936;28;21567;-40
2020/12/17 02:26:07;;;;;;;23.80;20.27;;;8.20;99.90;;;;;;5060754;28;20244;-40
2020/12/17 02:28:34;;;;;;;26.93;19.03;;;8.30;99.90;;;;;;5059742;28;20273;-41
2020/12/17 02:31:00;;;;;;;25.67;21.30;;;8.30;99.90;;;;;;5058997;28;20220;-41
2020/12/17 02:33:27;;;;;;;22.88;19.58;;;8.30;99.90;;;;;;5058774;28;20207;-41
2020/12/17 02:35:54;;;;;;;25.07;19.80;;;8.40;99.90;;;;;;5062319;28;20222;-41
2020/12/17 02:38:21;;;;;;;22.93;20.13;;;8.30;99.90;;;;;;5059798;28;20812;-40
2020/12/17 02:40:47;;;;;;;24.33;19.07;;;8.30;99.90;;;;;;5052965;28;20306;-40
2020/12/17 02:43:15;;;;;;;23.80;19.50;;;8.40;99.90;;;;;;5056221;28;20238;-41
2020/12/17 02:45:45;;;;;;;25.00;18.60;;;8.40;99.90;;;;;;5057182;28;20210;-41
2020/12/17 02:48:11;;;;;;;26.73;20.57;;;8.30;99.90;;;;;;5061544;28;20206;-40
2020/12/17 02:50:38;;;;;;;23.80;18.37;;;8.30;99.90;;;;;;5054182;28;20194;-40
2020/12/17 02:53:05;;;;;;;25.33;21.00;;;8.30;99.90;;;;;;5059634;28;20264;-40
2020/12/17 02:55:31;;;;;;;24.00;19.07;;;8.30;99.90;;;;;;5073180;28;20226;-41
2020/12/17 02:57:58;;;;;;;27.60;20.53;;;8.30;99.90;;;;;;5070899;28;20661;-40
2020/12/17 03:00:25;;;;;;;21.65;17.88;;;8.30;99.90;;;;;;5053979;28;20257;-41
2020/12/17 03:02:52;;;;;;;22.47;19.23;;;8.40;99.90;;;;;;5054002;28;20223;-40
2020/12/17 03:05:19;;;;;;;23.57;18.70;;;8.40;99.90;;;;;;5065538;28;20196;-41
2020/12/17 03:07:45;;;;;;;23.33;19.13;;;8.40;99.90;;;;;;5066576;28;20186;-41
2020/12/17 03:10:13;;;;;;;23.85;19.70;;;8.50;99.90;;;;;;5063593;28;20293;-41
2020/12/17 03:12:40;;;;;;;24.75;17.73;;;8.40;99.90;;;;;;5053595;28;20223;-41
2020/12/17 03:15:07;;;;;;;22.93;18.53;;;8.30;99.90;;;;;;5054016;28;20195;-40
2020/12/17 03:17:35;;;;;;;23.60;19.90;;;8.30;99.90;;;;;;5065861;28;20732;-41
2020/12/17 03:20:03;;;;;;;22.73;18.37;;;8.30;99.90;;;;;;5066142;28;20304;-40
2020/12/17 03:22:29;;;;;;;24.40;19.80;;;8.30;99.90;;;;;;5063116;28;20218;-41
2020/12/17 03:24:56;;;;;;;22.87;18.97;;;8.40;99.90;;;;;;5073035;28;20206;-41
2020/12/17 03:27:22;;;;;;;23.57;18.73;;;8.40;99.90;;;;;;5073028;28;20287;-40
2020/12/17 03:29:49;;;;;;;24.75;19.70;;;8.40;99.90;;;;;;5068103;28;20190;-41
2020/12/17 03:32:15;;;;;;;25.02;20.65;;;8.50;99.90;;;;;;5052486;28;20685;-41
2020/12/17 03:34:43;;;;;;;22.87;19.57;;;8.40;99.90;;;;;;5061377;28;20199;-40
2020/12/17 03:37:09;;;;;;;23.40;19.83;;;8.40;99.90;;;;;;5072315;28;20217;-40
2020/12/17 03:39:36;;;;;;;25.03;19.80;;;8.40;99.90;;;;;;5052634;28;20202;-40
2020/12/17 03:42:03;;;;;;;22.93;17.47;;;8.60;99.90;;;;;;5065905;28;20243;-40
2020/12/17 03:44:30;;;;;;;25.52;18.83;;;8.40;99.90;;;;;;5053616;28;20665;-41
2020/12/17 03:46:56;;;;;;;23.53;18.07;;;8.40;99.90;;;;;;5051356;28;20282;-41
2020/12/17 03:49:23;;;;;;;23.10;19.50;;;8.40;99.90;;;;;;5061970;28;20290;-41
2020/12/17 03:51:50;;;;;;;24.30;18.70;;;8.50;99.90;;;;;;5072203;28;20214;-40
2020/12/17 03:54:17;;;;;;;20.77;16.33;;;8.30;99.90;;;;;;5068416;28;20634;-41
2020/12/17 03:56:43;;;;;;;26.27;18.87;;;8.30;99.90;;;;;;5062949;28;20211;-40
2020/12/17 03:59:10;;;;;;;22.53;18.50;;;8.30;99.90;;;;;;5069144;28;20253;-41
2020/12/17 04:01:36;;;;;;;22.73;18.37;;;8.30;99.90;;;;;;5052183;28;20219;-40
2020/12/17 04:04:03;;;;;;;24.33;17.05;;;8.20;99.90;;;;;;5052293;28;20296;-41
2020/12/17 04:06:29;;;;;;;20.60;17.35;;;8.20;99.90;;;;;;5052199;28;20216;-41
2020/12/17 04:08:56;;;;;;;21.67;17.77;;;8.20;99.90;;;;;;5052247;28;20204;-40
2020/12/17 04:11:23;;;;;;;18.53;15.87;;;8.20;99.90;;;;;;5061079;28;20354;-41
2020/12/17 04:13:50;;;;;;;21.27;17.80;;;8.20;99.90;;;;;;5062425;28;20195;-41
2020/12/17 04:16:16;;;;;;;26.90;18.83;;;8.20;99.90;;;;;;5038614;28;20242;-41
2020/12/17 04:19:01;;;;;;;23.97;17.67;;;8.20;99.90;;;;;;5064812;28;20202;-41
2020/12/17 04:21:28;;;;;;;20.03;16.47;;;8.10;99.90;;;;;;5058919;28;20221;-40
2020/12/17 04:23:54;;;;;;;21.73;16.70;;;8.10;99.90;;;;;;5051670;28;20203;-41
2020/12/17 04:26:22;;;;;;;23.00;16.80;;;8.20;99.90;;;;;;5051783;28;20199;-41
2020/12/17 04:28:48;;;;;;;19.53;16.23;;;8.10;99.90;;;;;;5052620;28;20673;-40
2020/12/17 04:31:15;;;;;;;22.77;17.77;;;8.20;99.90;;;;;;5067967;28;20299;-40
2020/12/17 04:33:41;;;;;;;22.33;18.50;;;8.10;99.90;;;;;;5051299;28;20203;-40
2020/12/17 04:36:08;;;;;;;19.83;17.00;;;8.10;99.90;;;;;;5057904;28;20622;-40
2020/12/17 04:38:34;;;;;;;21.03;16.43;;;8.20;99.90;;;;;;5060336;28;20274;-40
2020/12/17 04:41:04;;;;;;;19.97;16.50;;;8.20;99.90;;;;;;5051179;28;20219;-40
2020/12/17 04:43:32;;;;;;;20.43;17.50;;;8.10;99.90;;;;;;5051491;28;20215;-41
2020/12/17 04:45:59;;;;;;;21.20;16.30;;;8.20;99.90;;;;;;5051331;28;20199;-40
2020/12/17 04:48:26;;;;;;;22.20;18.07;;;8.20;99.90;;;;;;5052901;28;20282;-40
2020/12/17 04:50:53;;;;;;;20.20;16.60;;;8.20;99.90;;;;;;5070502;28;20222;-40
2020/12/17 04:53:20;;;;;;;20.90;18.00;;;8.20;99.90;;;;;;5056773;28;20286;-40
2020/12/17 04:55:48;;;;;;;20.00;16.63;;;8.20;99.90;;;;;;5051319;28;20309;-41
2020/12/17 04:58:20;;;;;;;23.20;17.30;;;8.20;99.90;;;;;;5051265;28;20203;-41
2020/12/17 05:00:53;;;;;;;19.97;15.73;;;8.10;99.90;;;;;;5052367;28;20211;-41
2020/12/17 05:03:22;;;;;;;21.00;14.80;;;8.20;99.90;;;;;;5078454;22;20226;-40
2020/12/17 05:05:51;;;;;;;21.23;18.90;;;8.20;99.90;;;;;;5090549;28;20202;-40
2020/12/17 05:08:20;;;;;;;18.88;16.13;;;8.20;99.90;;;;;;5089400;28;20206;-41
2020/12/17 05:10:47;;;;;;;18.73;15.30;;;8.20;99.90;;;;;;5087271;28;20626;-40
2020/12/17 05:13:15;;;;;;;20.90;17.38;;;8.20;99.90;;;;;;5070446;28;20226;-41
2020/12/17 05:15:41;;;;;;;22.17;17.40;;;8.30;99.90;;;;;;5056087;28;20222;-41
2020/12/17 05:18:08;;;;;;;17.47;15.63;;;8.20;99.90;;;;;;5067968;28;20210;-41
2020/12/17 05:20:37;;;;;;;16.47;14.63;;;8.20;99.90;;;;;;5070648;28;20197;-40
2020/12/17 05:23:05;;;;;;;16.27;14.57;;;8.30;99.90;;;;;;5072146;28;20198;-40
2020/12/17 05:25:32;;;;;;;20.57;15.93;;;8.20;99.90;;;;;;5069222;28;20194;-40
2020/12/17 05:28:01;;;;;;;19.70;16.50;;;8.30;99.90;;;;;;5055007;28;20212;-41
2020/12/17 05:30:32;;;;;;;21.57;15.30;;;8.30;99.90;;;;;;5054814;28;20196;-41
2020/12/17 05:33:00;;;;;;;18.40;15.50;;;8.30;99.90;;;;;;5049473;28;20680;-41
2020/12/17 05:35:33;;;;;;;16.05;13.95;;;8.30;99.90;;;;;;5051056;28;20616;-41
2020/12/17 05:38:02;;;;;;;17.03;14.97;;;8.30;99.90;;;;;;5059925;28;20706;-40
2020/12/17 05:40:28;;;;;;;20.70;16.30;;;8.30;99.90;;;;;;5070443;28;20561;-40
2020/12/17 05:42:56;;;;;;;15.63;13.77;;;8.30;99.90;;;;;;5069684;28;20631;-41
2020/12/17 05:45:24;;;;;;;19.08;15.82;;;8.30;99.90;;;;;;5069957;28;20199;-40
2020/12/17 05:48:14;;;;;;;20.40;16.47;;;8.30;99.90;;;;;;5059958;28;20314;-40
2020/12/17 05:50:55;;;;;;;20.47;15.57;;;8.30;99.90;;;;;;5051979;28;20531;-41
2020/12/17 05:53:23;;;;;;;19.47;15.43;;;8.30;99.90;;;;;;5066938;28;20226;-41
2020/12/17 05:55:52;;;;;;;19.20;15.65;;;8.30;99.90;;;;;;5054354;28;20647;-41
2020/12/17 05:58:19;;;;;;;22.50;17.20;;;8.30;99.90;;;;;;5050526;28;20498;-40
2020/12/17 06:00:48;;;;;;;19.42;16.40;;;8.30;99.90;;;;;;5056275;28;20241;-40
2020/12/17 06:03:27;;;;;;;20.05;15.50;;;8.30;99.90;;;;;;5062201;28;20424;-40
2020/12/17 06:06:00;;;;;;;18.43;15.50;;;8.40;99.90;;;;;;5061530;28;20194;-40
2020/12/17 06:08:34;;;;;;;17.33;14.33;;;8.30;99.90;;;;;;5069953;28;20194;-41
2020/12/17 06:11:04;;;;;;;18.23;14.83;;;8.40;99.90;;;;;;5054152;28;20238;-41
2020/12/17 06:13:36;;;;;;;18.80;15.03;;;8.30;99.90;;;;;;5055491;28;20248;-40
2020/12/17 06:16:04;;;;;;;16.77;12.83;;;8.40;99.90;;;;;;5054094;28;20736;-40
2020/12/17 06:18:36;;;;;;;15.73;13.07;;;8.40;99.90;;;;;;5067924;28;20240;-41
2020/12/17 06:21:05;;;;;;;19.47;15.37;;;8.40;99.90;;;;;;5073467;28;20229;-41
2020/12/17 06:23:33;;;;;;;17.73;15.83;;;8.40;99.90;;;;;;5073802;28;20199;-41
2020/12/17 06:25:59;;;;;;;17.70;14.47;;;8.40;99.90;;;;;;5073714;28;20225;-41
2020/12/17 06:28:38;;;;;;;18.97;14.93;;;8.40;99.90;;;;;;5064537;28;20681;-40
2020/12/17 06:31:05;;;;;;;18.40;15.03;;;8.40;99.90;;;;;;5068509;28;20218;-41
2020/12/17 06:33:36;;;;;;;17.33;14.10;;;8.40;99.90;;;;;;5054014;28;20200;-40
2020/12/17 06:36:09;;;;;;;18.87;15.93;;;8.40;99.90;;;;;;5067047;28;20214;-41
2020/12/17 06:38:38;;;;;;;18.30;16.03;;;8.40;99.90;;;;;;5068610;28;20206;-41
2020/12/17 06:41:19;;;;;;;19.37;14.57;;;8.50;99.90;;;;;;5053570;28;20564;-40
2020/12/17 06:43:46;;;;;;;18.77;16.83;;;8.50;99.90;;;;;;5065281;28;20223;-40
2020/12/17 06:46:33;;;;;;;16.20;14.47;;;8.50;99.90;;;;;;5072536;28;20725;-40
2020/12/17 06:49:01;;;;;;;19.97;15.27;;;8.50;99.90;;;;;;5070668;28;20203;-40
2020/12/17 06:51:34;;;;;;;16.53;14.17;;;8.60;99.90;;;;;;5053793;28;20207;-42
2020/12/17 06:54:02;;;;;;;17.77;14.35;;;8.50;99.90;;;;;;5067691;28;20365;-40
2020/12/17 06:56:28;;;;;;;19.67;14.00;;;8.70;99.90;;;;;;5073366;28;20628;-40
2020/12/17 06:59:14;;;;;;;17.33;15.00;;;8.60;99.90;;;;;;5053230;28;21169;-41
2020/12/17 07:01:42;;;;;;;19.03;13.73;;;8.60;99.90;;;;;;5064706;28;20224;-40
2020/12/17 07:04:09;;;;;;;14.63;13.13;;;8.60;99.90;;;;;;5037032;28;20206;-41
2020/12/17 07:06:36;;;;;;;18.50;15.13;;;8.50;99.90;;;;;;5061033;28;20285;-41
2020/12/17 07:09:04;;;;;;;16.03;13.23;;;8.50;99.90;;;;;;5068941;28;20290;-41
2020/12/17 07:11:42;;;;;;;16.03;14.27;;;8.60;99.90;;;;;;5070553;28;20255;-40
2020/12/17 07:14:11;;;;;;;17.67;13.13;;;8.50;99.90;;;;;;5070908;28;20719;-40
2020/12/17 07:16:38;;;;;;;16.70;14.45;;;8.50;99.90;;;;;;5064112;28;20214;-41
2020/12/17 07:19:21;;;;;;;17.48;14.93;;;8.60;99.90;;;;;;5069567;28;20195;-41
2020/12/17 07:22:01;;;;;;;16.13;13.57;;;8.60;99.90;;;;;;5052981;28;20772;-41
2020/12/17 07:24:31;;;;;;;17.92;14.00;;;8.40;99.90;;;;;;5054758;28;20535;-40
2020/12/17 07:27:03;;;;;;;19.42;14.98;;;8.60;99.90;;;;;;5059093;28;20278;-40
2020/12/17 07:29:31;;;;;;;17.70;14.53;;;8.60;99.90;;;;;;5058175;28;20230;-41
2020/12/17 07:32:26;;;;;;;17.80;14.13;;;8.70;99.90;;;;;;5069723;28;20243;-41
2020/12/17 07:34:58;;;;;;;15.37;13.10;;;8.60;99.90;;;;;;5054273;28;20209;-40
2020/12/17 07:37:43;;;;;;;23.97;14.57;;;8.60;99.90;;;;;;5052171;28;20597;-41
2020/12/17 07:40:18;;;;;;;18.55;14.43;;;8.60;99.90;;;;;;5054658;28;20215;-41
2020/12/17 07:43:12;;;;;;;17.02;14.07;;;8.50;99.90;;;;;;5050669;28;20648;-41
2020/12/17 07:45:44;;;;;;;19.73;15.03;;;8.60;99.90;;;;;;5060292;28;20209;-41
2020/12/17 07:48:32;;;;;;;17.27;13.97;;;8.50;99.90;;;;;;5064940;28;20198;-41
2020/12/17 07:50:59;;;;;;;15.80;13.67;;;8.50;99.90;;;;;;5053745;28;20233;-41
2020/12/17 07:53:32;;;;;;;16.35;13.73;;;8.60;99.90;;;;;;5069786;28;20621;-43
2020/12/17 07:56:00;;;;;;;16.53;14.07;;;8.50;99.90;;;;;;5044499;28;20226;-42
2020/12/17 07:58:27;;;;;;;17.97;13.97;;;8.50;99.90;;;;;;5063653;28;20780;-42
2020/12/17 08:00:55;;;;;;;17.57;13.67;;;8.50;99.90;;;;;;5067297;28;20314;-42
2020/12/17 08:03:22;;;;;;;13.93;12.00;;;8.60;99.90;;;;;;5058594;28;20199;-42
2020/12/17 08:05:48;;;;;;;19.67;15.10;;;8.60;99.90;;;;;;5067989;28;20212;-42
2020/12/17 08:08:16;;;;;;;15.77;13.47;;;8.60;99.90;;;;;;5064807;28;20221;-41
2020/12/17 08:10:44;;;;;;;17.60;14.33;;;8.60;99.90;;;;;;5067470;28;20223;-42
2020/12/17 08:13:11;;;;;;;17.63;12.30;;;8.60;99.90;;;;;;5052542;28;20202;-42
2020/12/17 08:15:37;;;;;;;17.60;13.15;;;8.60;99.90;;;;;;5060555;28;20193;-42
2020/12/17 08:18:05;;;;;;;17.80;14.03;;;8.50;99.90;;;;;;5072114;28;20203;-42
2020/12/17 08:20:32;;;;;;;19.00;14.57;;;8.50;99.90;;;;;;5072700;28;20190;-41
2020/12/17 08:22:59;;;;;;;18.13;13.77;;;8.50;99.90;;;;;;5066256;28;20225;-42
2020/12/17 08:25:28;;;;;;;17.58;13.77;;;8.60;99.90;;;;;;5066775;28;20206;-41
2020/12/17 08:27:55;;;;;;;14.83;13.03;;;8.60;99.90;;;;;;5069465;28;20198;-42
2020/12/17 08:30:22;;;;;;;17.53;15.70;;;8.60;99.90;;;;;;5052157;28;20224;-42
2020/12/17 08:32:50;;;;;;;16.27;14.43;;;8.60;99.90;;;;;;5051546;28;20574;-42
2020/12/17 08:35:22;;;;;;;17.63;15.23;;;8.60;99.90;;;;;;5050865;28;20203;-42
2020/12/17 08:37:51;;;;;;;18.13;13.55;;;8.60;99.90;;;;;;5051909;28;20773;-41
2020/12/17 08:40:23;;;;;;;20.23;14.87;;;8.60;99.90;;;;;;5059017;28;20214;-42
2020/12/17 08:42:55;;;;;;;18.33;13.57;;;8.70;99.90;;;;;;5068620;28;20215;-42
2020/12/17 08:45:26;;;;;;;16.33;13.97;;;8.70;99.90;;;;;;5065727;28;20202;-42
2020/12/17 08:47:57;;;;;;;19.00;14.27;;;8.80;99.90;;;;;;5059152;28;20295;-41
2020/12/17 08:50:26;;;;;;;14.53;12.93;;;8.80;99.90;;;;;;5062040;28;20277;-41
2020/12/17 08:52:53;;;;;;;17.70;12.50;;;8.70;99.90;;;;;;5068430;28;20195;-42
2020/12/17 08:55:19;;;;;;;20.67;15.30;;;8.70;99.90;;;;;;5060567;28;20232;-42
2020/12/17 08:57:47;;;;;;;17.50;15.13;;;8.70;99.90;;;;;;5057397;28;20238;-41
2020/12/17 09:00:16;;;;;;;14.57;12.97;;;8.90;99.90;;;;;;5034031;28;20203;-42
2020/12/17 09:02:44;;;;;;;19.10;15.20;;;9.00;99.90;;;;;;5068448;28;20245;-42
2020/12/17 09:05:12;;;;;;;16.17;13.97;;;9.00;99.90;;;;;;5071216;28;20209;-41
2020/12/17 09:07:46;;;;;;;15.43;13.67;;;9.00;99.90;;;;;;5053824;28;20812;-42
2020/12/17 09:10:14;;;;;;;18.90;13.47;;;9.00;99.90;;;;;;5060915;28;20720;-42
2020/12/17 09:12:42;;;;;;;15.52;13.65;;;9.10;99.90;;;;;;5064076;28;20680;-41
2020/12/17 09:15:12;;;;;;;15.13;13.52;;;9.10;99.90;;;;;;5060971;28;20204;-41
2020/12/17 09:17:40;;;;;;;16.27;12.70;;;9.10;99.90;;;;;;5067856;28;20587;-41
2020/12/17 09:20:15;;;;;;;14.73;12.93;;;9.10;99.90;;;;;;5061695;28;20203;-41
2020/12/17 09:22:42;;;;;;;17.70;13.13;;;9.00;99.90;;;;;;5052603;28;20242;-42
2020/12/17 09:25:09;;;;;;;13.83;12.37;;;9.00;99.90;;;;;;5056486;28;20207;-42
2020/12/17 09:27:38;;;;;;;16.43;12.07;;;8.80;99.90;;;;;;5063525;28;20576;-43
2020/12/17 09:30:11;;;;;;;16.70;13.20;;;9.00;99.90;;;;;;5061856;28;20195;-41
2020/12/17 09:32:40;;;;;;;18.33;13.33;;;9.10;99.90;;;;;;5067409;28;20219;-41
2020/12/17 09:35:11;;;;;;;16.77;13.83;;;9.00;99.90;;;;;;5056211;28;20195;-42
2020/12/17 09:37:40;;;;;;;15.90;13.57;;;9.10;99.90;;;;;;5057446;28;20228;-42
2020/12/17 09:40:10;;;;;;;16.63;13.25;;;9.10;99.90;;;;;;5059759;28;20290;-42
2020/12/17 09:42:38;;;;;;;15.53;12.77;;;9.00;99.90;;;;;;5068623;28;20248;-41
2020/12/17 09:45:15;;;;;;;17.90;13.40;;;9.00;99.90;;;;;;5069209;28;20539;-42
2020/12/17 09:47:42;;;;;;;16.40;12.77;;;9.00;99.90;;;;;;5052613;28;20205;-45
2020/12/17 09:50:11;;;;;;;17.17;13.50;;;9.00;99.90;;;;;;5052305;28;20654;-42
2020/12/17 09:52:39;;;;;;;15.13;13.52;;;9.00;99.90;;;;;;5056739;28;20219;-42
2020/12/17 09:55:06;;;;;;;16.37;14.17;;;9.00;99.90;;;;;;5055373;28;20282;-41
2020/12/17 09:57:40;;;;;;;18.02;14.70;;;8.90;99.90;;;;;;5072766;28;20658;-41
2020/12/17 10:00:09;;;;;;;17.13;14.50;;;9.00;99.90;;;;;;5069125;28;20195;-42
2020/12/17 10:02:39;;;;;;;19.00;14.00;;;8.90;99.90;;;;;;5068423;28;20241;-42
2020/12/17 10:05:07;;;;;;;18.17;13.13;;;9.00;99.90;;;;;;5068048;28;20203;-42
2020/12/17 10:07:33;;;;;;;16.13;14.48;;;9.00;99.90;;;;;;5055835;28;20215;-43
2020/12/17 10:10:01;;;;;;;16.67;13.57;;;9.00;99.90;;;;;;5052604;28;20252;-42
2020/12/17 10:12:30;;;;;;;16.40;13.30;;;9.00;99.90;;;;;;5068250;28;20736;-42
2020/12/17 10:14:57;;;;;;;17.67;14.33;;;9.10;99.90;;;;;;5057778;28;20290;-41
2020/12/17 10:17:23;;;;;;;17.23;14.03;;;9.20;99.90;;;;;;5067568;28;20233;-43
2020/12/17 10:19:50;;;;;;;15.87;13.57;;;9.20;99.90;;;;;;5064454;28;20206;-43
2020/12/17 10:22:16;;;;;;;16.50;14.27;;;9.20;99.90;;;;;;5063991;28;20298;-41
2020/12/17 10:24:43;;;;;;;15.20;13.60;;;9.20;99.90;;;;;;5061306;28;20285;-41
2020/12/17 10:27:10;;;;;;;16.57;14.23;;;9.20;99.90;;;;;;5050101;28;20306;-41
2020/12/17 10:29:37;;;;;;;19.85;15.43;;;9.20;99.90;;;;;;5050334;28;20377;-41
2020/12/17 10:32:03;;;;;;;17.13;14.18;;;9.10;99.90;;;;;;5050174;28;20614;-41
2020/12/17 10:34:30;;;;;;;15.93;13.17;;;9.20;99.90;;;;;;5050304;28;20289;-41
2020/12/17 10:36:56;;;;;;;16.10;14.37;;;9.20;99.90;;;;;;5031751;28;20309;-41
2020/12/17 10:39:23;;;;;;;17.93;14.63;;;9.20;99.90;;;;;;5057604;28;20564;-41
2020/12/17 10:41:49;;;;;;;18.43;15.80;;;9.30;99.90;;;;;;5053544;28;20239;-41
2020/12/17 10:44:17;;;;;;;17.70;14.53;;;9.30;99.90;;;;;;5050827;28;20211;-41
2020/12/17 10:46:43;;;;;;;17.47;15.57;;;9.30;99.90;;;;;;5049951;28;20222;-41
2020/12/17 10:49:10;;;;;;;19.67;14.85;;;9.30;99.90;;;;;;5050235;28;20196;-41
2020/12/17 10:51:37;;;;;;;17.10;14.65;;;9.20;99.90;;;;;;5049526;28;20230;-41
2020/12/17 10:54:04;;;;;;;18.60;14.57;;;9.20;99.90;;;;;;5050066;28;20200;-41
2020/12/17 10:56:30;;;;;;;16.38;14.35;;;9.30;99.90;;;;;;5053264;28;20269;-42
2020/12/17 10:58:57;;;;;;;16.30;14.70;;;9.30;99.90;;;;;;5053354;28;20206;-41
2020/12/17 11:01:24;;;;;;;17.17;13.87;;;9.40;99.90;;;;;;5056212;28;20238;-42
2020/12/17 11:03:52;;;;;;;15.20;13.68;;;9.30;99.90;;;;;;5073771;28;20212;-41
2020/12/17 11:06:21;;;;;;;16.50;14.63;;;9.30;99.90;;;;;;5055525;28;20282;-42
2020/12/17 11:08:48;;;;;;;17.07;14.67;;;9.30;99.90;;;;;;5073607;28;20202;-41
2020/12/17 11:11:15;;;;;;;16.33;14.07;;;9.30;99.90;;;;;;5069046;28;20576;-41
2020/12/17 11:13:42;;;;;;;17.17;13.90;;;9.40;99.90;;;;;;5064732;28;20229;-41
2020/12/17 11:16:09;;;;;;;15.27;13.20;;;9.40;99.90;;;;;;5054860;28;20247;-41
2020/12/17 11:18:38;;;;;;;17.02;14.50;;;9.40;99.90;;;;;;5065469;28;20276;-41
2020/12/17 11:21:04;;;;;;;16.57;13.87;;;9.40;99.90;;;;;;5073397;28;20261;-41
2020/12/17 11:23:33;;;;;;;22.02;14.77;;;9.50;99.90;;;;;;5068506;28;20204;-43
2020/12/17 11:26:01;;;;;;;15.73;13.82;;;9.50;99.90;;;;;;5063541;28;20350;-42
2020/12/17 11:28:27;;;;;;;20.48;13.98;;;9.50;99.90;;;;;;5054700;28;20633;-42
2020/12/17 11:30:55;;;;;;;16.57;13.73;;;9.50;99.90;;;;;;5053405;28;20242;-42
2020/12/17 11:33:21;;;;;;;14.73;12.60;;;9.50;99.90;;;;;;5056790;28;20224;-42
2020/12/17 11:35:49;;;;;;;16.57;13.77;;;9.50;99.90;;;;;;5071604;28;20285;-42
2020/12/17 11:38:15;;;;;;;19.57;15.77;;;9.50;99.90;;;;;;5069885;28;20211;-41
2020/12/17 11:40:42;;;;;;;16.83;13.43;;;9.60;99.90;;;;;;5066271;28;20653;-42
2020/12/17 11:43:09;;;;;;;17.33;13.93;;;9.50;99.90;;;;;;5052377;28;20225;-42
2020/12/17 11:45:35;;;;;;;13.43;11.83;;;9.50;99.90;;;;;;5053312;28;20199;-42
2020/12/17 11:48:02;;;;;;;16.77;14.23;;;9.60;99.90;;;;;;5046077;28;20199;-42
2020/12/17 11:50:29;;;;;;;16.83;11.83;;;9.60;99.90;;;;;;5072511;28;20272;-41
2020/12/17 11:52:57;;;;;;;13.75;12.15;;;9.60;99.90;;;;;;5054895;28;20206;-41
2020/12/17 11:55:23;;;;;;;12.63;11.32;;;9.60;99.90;;;;;;5072727;28;20208;-41
2020/12/17 11:57:50;;;;;;;13.43;12.07;;;9.70;99.90;;;;;;5068976;28;20221;-42
2020/12/17 12:00:17;;;;;;;12.63;11.10;;;9.70;99.90;;;;;;5063322;28;20248;-42
2020/12/17 12:02:43;;;;;;;12.30;11.03;;;9.60;99.90;;;;;;5061089;28;20584;-42
2020/12/17 12:05:11;;;;;;;12.77;11.47;;;9.60;99.90;;;;;;5060159;28;20681;-42
2020/12/17 12:07:37;;;;;;;16.57;13.17;;;9.60;99.90;;;;;;5063573;28;20191;-42
2020/12/17 12:10:05;;;;;;;13.63;11.47;;;9.70;99.90;;;;;;5063286;28;20247;-42
2020/12/17 12:12:32;;;;;;;14.03;12.53;;;9.80;99.90;;;;;;5034527;28;20224;-42
2020/12/17 12:14:58;;;;;;;12.30;11.00;;;9.90;99.90;;;;;;5052159;28;20205;-42
2020/12/17 12:17:25;;;;;;;12.33;10.87;;;10.00;99.90;;;;;;5052404;28;20246;-42
2020/12/17 12:19:51;;;;;;;13.00;10.40;;;10.00;99.90;;;;;;5051869;28;20302;-42
2020/12/17 12:22:18;;;;;;;11.88;10.65;;;10.10;99.90;;;;;;5060270;28;20222;-43
2020/12/17 12:24:44;;;;;;;14.30;10.88;;;10.10;99.90;;;;;;5071373;28;20191;-42
2020/12/17 12:27:12;;;;;;;12.65;11.32;;;10.00;99.90;;;;;;5071444;28;20765;-41
2020/12/17 12:29:38;;;;;;;10.37;9.27;;;9.90;99.90;;;;;;5071323;28;20204;-42
2020/12/17 12:32:05;;;;;;;11.55;10.45;;;9.90;99.90;;;;;;5070988;28;20308;-48
2020/12/17 12:34:32;;;;;;;13.07;10.23;;;9.90;99.90;;;;;;5071852;28;20282;-42
2020/12/17 12:36:59;;;;;;;11.82;10.60;;;9.80;99.90;;;;;;5071192;28;20216;-42
2020/12/17 12:39:25;;;;;;;10.10;9.10;;;9.80;99.90;;;;;;5071166;28;20210;-42
2020/12/17 12:41:52;;;;;;;10.95;9.80;;;9.90;99.90;;;;;;5070490;28;20230;-42